sensor_id;sensor_type;location;lat;lon;timestamp;P1;durP1;ratioP1;P2;durP2;ratioP2
15096;SDS011;7649;52.084;7.478;2022-09-14T00:01:08;5.73;;;2.00;;
15096;SDS011;7649;52.084;7.478;2022-09-14T00:03:51;7.30;;;2.17;;
15096;SDS011;7649;52.084;7.478;2022-09-14T00:06:20;5.63;;;2.17;;
15096;SDS011;7649;52.084;7.478;2022-09-14T00:08:49;5.13;;;1.93;;
15096;SDS011;7649;52.084;7.478;2022-09-14T00:11:17;4.13;;;1.83;;
15096;SDS011;7649;52.084;7.478;2022-09-14T00:13:47;6.17;;;1.90;;
15096;SDS011;7649;52.084;7.478;2022-09-14T00:16:18;5.40;;;1.97;;
15096;SDS011;7649;52.084;7.478;2022-09-14T00:18:49;5.70;;;2.17;;
15096;SDS011;7649;52.084;7.478;2022-09-14T00:21:17;7.30;;;2.17;;
15096;SDS011;7649;52.084;7.478;2022-09-14T00:23:46;4.20;;;2.10;;
15096;SDS011;7649;52.084;7.478;2022-09-14T00:26:15;5.03;;;2.07;;
15096;SDS011;7649;52.084;7.478;2022-09-14T00:28:44;5.57;;;1.60;;
15096;SDS011;7649;52.084;7.478;2022-09-14T00:31:13;6.57;;;1.70;;
15096;SDS011;7649;52.084;7.478;2022-09-14T00:33:43;4.93;;;2.03;;
15096;SDS011;7649;52.084;7.478;2022-09-14T00:36:13;5.83;;;2.30;;
15096;SDS011;7649;52.084;7.478;2022-09-14T00:38:41;3.70;;;2.30;;
15096;SDS011;7649;52.084;7.478;2022-09-14T00:41:11;5.40;;;2.10;;
15096;SDS011;7649;52.084;7.478;2022-09-14T00:43:56;5.67;;;1.90;;
15096;SDS011;7649;52.084;7.478;2022-09-14T00:46:25;4.63;;;2.07;;
15096;SDS011;7649;52.084;7.478;2022-09-14T00:48:56;5.97;;;1.80;;
15096;SDS011;7649;52.084;7.478;2022-09-14T00:51:25;5.73;;;1.80;;
15096;SDS011;7649;52.084;7.478;2022-09-14T00:53:54;3.63;;;2.10;;
15096;SDS011;7649;52.084;7.478;2022-09-14T00:56:22;3.50;;;1.90;;
15096;SDS011;7649;52.084;7.478;2022-09-14T00:58:51;6.10;;;2.20;;
15096;SDS011;7649;52.084;7.478;2022-09-14T01:01:20;5.53;;;2.07;;
15096;SDS011;7649;52.084;7.478;2022-09-14T01:03:48;6.53;;;2.20;;
15096;SDS011;7649;52.084;7.478;2022-09-14T01:06:20;6.13;;;1.90;;
15096;SDS011;7649;52.084;7.478;2022-09-14T01:08:58;4.80;;;1.77;;
15096;SDS011;7649;52.084;7.478;2022-09-14T01:11:34;6.20;;;2.40;;
15096;SDS011;7649;52.084;7.478;2022-09-14T01:14:06;8.63;;;1.90;;
15096;SDS011;7649;52.084;7.478;2022-09-14T01:16:39;8.20;;;2.13;;
15096;SDS011;7649;52.084;7.478;2022-09-14T01:19:12;4.80;;;1.80;;
15096;SDS011;7649;52.084;7.478;2022-09-14T01:21:43;5.50;;;2.00;;
15096;SDS011;7649;52.084;7.478;2022-09-14T01:24:15;6.60;;;2.40;;
15096;SDS011;7649;52.084;7.478;2022-09-14T01:26:55;6.97;;;2.50;;
15096;SDS011;7649;52.084;7.478;2022-09-14T01:29:27;6.57;;;2.23;;
15096;SDS011;7649;52.084;7.478;2022-09-14T01:31:58;7.37;;;2.57;;
15096;SDS011;7649;52.084;7.478;2022-09-14T01:34:29;4.43;;;2.00;;
15096;SDS011;7649;52.084;7.478;2022-09-14T01:36:59;3.80;;;1.73;;
15096;SDS011;7649;52.084;7.478;2022-09-14T01:39:29;6.13;;;2.40;;
15096;SDS011;7649;52.084;7.478;2022-09-14T01:41:58;8.77;;;2.00;;
15096;SDS011;7649;52.084;7.478;2022-09-14T01:44:29;6.07;;;2.80;;
15096;SDS011;7649;52.084;7.478;2022-09-14T01:46:59;7.80;;;2.30;;
15096;SDS011;7649;52.084;7.478;2022-09-14T01:49:31;5.80;;;2.10;;
15096;SDS011;7649;52.084;7.478;2022-09-14T01:52:03;3.83;;;2.17;;
15096;SDS011;7649;52.084;7.478;2022-09-14T01:54:32;3.97;;;1.90;;
15096;SDS011;7649;52.084;7.478;2022-09-14T01:57:03;5.73;;;1.80;;
15096;SDS011;7649;52.084;7.478;2022-09-14T01:59:36;5.60;;;1.97;;
15096;SDS011;7649;52.084;7.478;2022-09-14T02:02:06;3.43;;;1.77;;
15096;SDS011;7649;52.084;7.478;2022-09-14T02:04:38;5.30;;;2.30;;
15096;SDS011;7649;52.084;7.478;2022-09-14T02:07:07;4.67;;;2.10;;
15096;SDS011;7649;52.084;7.478;2022-09-14T02:09:35;5.10;;;2.17;;
15096;SDS011;7649;52.084;7.478;2022-09-14T02:12:04;4.50;;;2.10;;
15096;SDS011;7649;52.084;7.478;2022-09-14T02:14:33;4.17;;;2.27;;
15096;SDS011;7649;52.084;7.478;2022-09-14T02:17:02;7.50;;;2.33;;
15096;SDS011;7649;52.084;7.478;2022-09-14T02:19:34;5.23;;;2.20;;
15096;SDS011;7649;52.084;7.478;2022-09-14T02:22:03;4.70;;;2.20;;
15096;SDS011;7649;52.084;7.478;2022-09-14T02:24:32;6.93;;;2.33;;
15096;SDS011;7649;52.084;7.478;2022-09-14T02:27:00;3.77;;;1.90;;
15096;SDS011;7649;52.084;7.478;2022-09-14T02:29:29;5.77;;;2.13;;
15096;SDS011;7649;52.084;7.478;2022-09-14T02:32:01;3.50;;;2.00;;
15096;SDS011;7649;52.084;7.478;2022-09-14T02:34:35;4.90;;;2.50;;
15096;SDS011;7649;52.084;7.478;2022-09-14T02:37:06;6.03;;;2.80;;
15096;SDS011;7649;52.084;7.478;2022-09-14T02:39:39;5.87;;;2.37;;
15096;SDS011;7649;52.084;7.478;2022-09-14T02:42:13;5.70;;;2.73;;
15096;SDS011;7649;52.084;7.478;2022-09-14T02:44:46;6.93;;;2.77;;
15096;SDS011;7649;52.084;7.478;2022-09-14T02:47:19;9.50;;;2.77;;
15096;SDS011;7649;52.084;7.478;2022-09-14T02:49:53;3.23;;;2.80;;
15096;SDS011;7649;52.084;7.478;2022-09-14T02:52:25;5.80;;;2.70;;
15096;SDS011;7649;52.084;7.478;2022-09-14T02:54:56;6.53;;;2.80;;
15096;SDS011;7649;52.084;7.478;2022-09-14T02:57:25;12.70;;;2.70;;
15096;SDS011;7649;52.084;7.478;2022-09-14T02:59:53;4.80;;;2.50;;
15096;SDS011;7649;52.084;7.478;2022-09-14T03:02:21;2.97;;;2.43;;
15096;SDS011;7649;52.084;7.478;2022-09-14T03:04:51;6.43;;;2.80;;
15096;SDS011;7649;52.084;7.478;2022-09-14T03:07:20;8.47;;;3.00;;
15096;SDS011;7649;52.084;7.478;2022-09-14T03:09:48;5.80;;;2.70;;
15096;SDS011;7649;52.084;7.478;2022-09-14T03:12:16;5.47;;;2.80;;
15096;SDS011;7649;52.084;7.478;2022-09-14T03:14:44;4.93;;;2.80;;
15096;SDS011;7649;52.084;7.478;2022-09-14T03:17:13;6.93;;;3.07;;
15096;SDS011;7649;52.084;7.478;2022-09-14T03:19:41;6.13;;;2.97;;
15096;SDS011;7649;52.084;7.478;2022-09-14T03:22:11;6.03;;;2.80;;
15096;SDS011;7649;52.084;7.478;2022-09-14T03:24:39;5.57;;;3.03;;
15096;SDS011;7649;52.084;7.478;2022-09-14T03:27:07;5.83;;;3.00;;
15096;SDS011;7649;52.084;7.478;2022-09-14T03:29:35;8.70;;;3.67;;
15096;SDS011;7649;52.084;7.478;2022-09-14T03:32:04;7.43;;;3.23;;
15096;SDS011;7649;52.084;7.478;2022-09-14T03:34:32;7.80;;;3.23;;
15096;SDS011;7649;52.084;7.478;2022-09-14T03:37:00;4.57;;;2.83;;
15096;SDS011;7649;52.084;7.478;2022-09-14T03:39:30;7.73;;;3.00;;
15096;SDS011;7649;52.084;7.478;2022-09-14T03:41:58;8.03;;;3.57;;
15096;SDS011;7649;52.084;7.478;2022-09-14T03:44:26;4.60;;;3.13;;
15096;SDS011;7649;52.084;7.478;2022-09-14T03:46:54;6.20;;;3.17;;
15096;SDS011;7649;52.084;7.478;2022-09-14T03:49:23;8.80;;;3.60;;
15096;SDS011;7649;52.084;7.478;2022-09-14T03:51:52;5.83;;;2.90;;
15096;SDS011;7649;52.084;7.478;2022-09-14T03:54:25;6.03;;;3.23;;
15096;SDS011;7649;52.084;7.478;2022-09-14T03:56:54;5.03;;;2.87;;
15096;SDS011;7649;52.084;7.478;2022-09-14T03:59:22;6.57;;;3.30;;
15096;SDS011;7649;52.084;7.478;2022-09-14T04:01:51;9.70;;;3.70;;
15096;SDS011;7649;52.084;7.478;2022-09-14T04:04:19;5.77;;;3.13;;
15096;SDS011;7649;52.084;7.478;2022-09-14T04:06:47;9.37;;;3.53;;
15096;SDS011;7649;52.084;7.478;2022-09-14T04:09:16;5.33;;;3.23;;
15096;SDS011;7649;52.084;7.478;2022-09-14T04:11:44;7.77;;;3.47;;
15096;SDS011;7649;52.084;7.478;2022-09-14T04:14:14;7.33;;;3.40;;
15096;SDS011;7649;52.084;7.478;2022-09-14T04:16:42;7.10;;;3.53;;
15096;SDS011;7649;52.084;7.478;2022-09-14T04:19:11;8.17;;;3.80;;
15096;SDS011;7649;52.084;7.478;2022-09-14T04:21:39;6.77;;;3.77;;
15096;SDS011;7649;52.084;7.478;2022-09-14T04:24:08;7.80;;;3.70;;
15096;SDS011;7649;52.084;7.478;2022-09-14T04:26:41;8.70;;;3.93;;
15096;SDS011;7649;52.084;7.478;2022-09-14T04:29:09;5.97;;;3.33;;
15096;SDS011;7649;52.084;7.478;2022-09-14T04:31:40;7.40;;;4.10;;
15096;SDS011;7649;52.084;7.478;2022-09-14T04:34:10;8.67;;;4.20;;
15096;SDS011;7649;52.084;7.478;2022-09-14T04:36:39;7.77;;;3.63;;
15096;SDS011;7649;52.084;7.478;2022-09-14T04:39:08;11.43;;;3.93;;
15096;SDS011;7649;52.084;7.478;2022-09-14T04:41:37;9.17;;;4.10;;
15096;SDS011;7649;52.084;7.478;2022-09-14T04:44:05;6.70;;;3.80;;
15096;SDS011;7649;52.084;7.478;2022-09-14T04:46:34;6.83;;;4.00;;
15096;SDS011;7649;52.084;7.478;2022-09-14T04:49:12;8.47;;;4.00;;
15096;SDS011;7649;52.084;7.478;2022-09-14T04:51:40;8.87;;;4.00;;
15096;SDS011;7649;52.084;7.478;2022-09-14T04:54:11;5.90;;;4.00;;
15096;SDS011;7649;52.084;7.478;2022-09-14T04:56:40;8.00;;;4.10;;
15096;SDS011;7649;52.084;7.478;2022-09-14T04:59:08;11.63;;;4.77;;
15096;SDS011;7649;52.084;7.478;2022-09-14T05:01:38;8.13;;;3.93;;
15096;SDS011;7649;52.084;7.478;2022-09-14T05:04:06;7.23;;;4.23;;
15096;SDS011;7649;52.084;7.478;2022-09-14T05:06:37;9.47;;;4.20;;
15096;SDS011;7649;52.084;7.478;2022-09-14T05:09:06;9.90;;;5.10;;
15096;SDS011;7649;52.084;7.478;2022-09-14T05:11:35;9.37;;;4.60;;
15096;SDS011;7649;52.084;7.478;2022-09-14T05:14:03;9.13;;;4.33;;
15096;SDS011;7649;52.084;7.478;2022-09-14T05:16:32;10.37;;;4.50;;
15096;SDS011;7649;52.084;7.478;2022-09-14T05:19:01;9.03;;;4.33;;
15096;SDS011;7649;52.084;7.478;2022-09-14T05:21:30;6.53;;;4.23;;
15096;SDS011;7649;52.084;7.478;2022-09-14T05:24:01;7.23;;;4.13;;
15096;SDS011;7649;52.084;7.478;2022-09-14T05:26:30;9.67;;;4.00;;
15096;SDS011;7649;52.084;7.478;2022-09-14T05:28:59;9.87;;;4.93;;
15096;SDS011;7649;52.084;7.478;2022-09-14T05:31:28;14.33;;;4.37;;
15096;SDS011;7649;52.084;7.478;2022-09-14T05:33:57;7.70;;;4.40;;
15096;SDS011;7649;52.084;7.478;2022-09-14T05:36:25;5.50;;;4.20;;
15096;SDS011;7649;52.084;7.478;2022-09-14T05:38:54;11.53;;;4.73;;
15096;SDS011;7649;52.084;7.478;2022-09-14T05:41:24;10.40;;;4.20;;
15096;SDS011;7649;52.084;7.478;2022-09-14T05:43:52;6.53;;;4.17;;
15096;SDS011;7649;52.084;7.478;2022-09-14T05:46:21;7.00;;;4.40;;
15096;SDS011;7649;52.084;7.478;2022-09-14T05:48:49;11.07;;;4.40;;
15096;SDS011;7649;52.084;7.478;2022-09-14T05:51:18;13.23;;;4.83;;
15096;SDS011;7649;52.084;7.478;2022-09-14T05:53:46;10.70;;;4.80;;
15096;SDS011;7649;52.084;7.478;2022-09-14T05:56:15;11.30;;;4.07;;
15096;SDS011;7649;52.084;7.478;2022-09-14T05:58:45;9.40;;;4.20;;
15096;SDS011;7649;52.084;7.478;2022-09-14T06:01:14;8.87;;;3.77;;
15096;SDS011;7649;52.084;7.478;2022-09-14T06:03:43;9.17;;;3.80;;
15096;SDS011;7649;52.084;7.478;2022-09-14T06:06:12;10.60;;;4.33;;
15096;SDS011;7649;52.084;7.478;2022-09-14T06:08:41;10.17;;;4.63;;
15096;SDS011;7649;52.084;7.478;2022-09-14T06:11:10;8.50;;;3.97;;
15096;SDS011;7649;52.084;7.478;2022-09-14T06:13:40;9.07;;;4.40;;
15096;SDS011;7649;52.084;7.478;2022-09-14T06:16:10;8.43;;;4.20;;
15096;SDS011;7649;52.084;7.478;2022-09-14T06:18:39;7.87;;;4.23;;
15096;SDS011;7649;52.084;7.478;2022-09-14T06:21:08;8.67;;;4.40;;
15096;SDS011;7649;52.084;7.478;2022-09-14T06:23:37;13.33;;;4.73;;
15096;SDS011;7649;52.084;7.478;2022-09-14T06:26:05;10.90;;;4.80;;
15096;SDS011;7649;52.084;7.478;2022-09-14T06:28:34;11.40;;;4.70;;
15096;SDS011;7649;52.084;7.478;2022-09-14T06:31:02;9.50;;;5.00;;
15096;SDS011;7649;52.084;7.478;2022-09-14T06:33:34;11.03;;;5.20;;
15096;SDS011;7649;52.084;7.478;2022-09-14T06:36:03;12.23;;;4.63;;
15096;SDS011;7649;52.084;7.478;2022-09-14T06:38:32;11.67;;;4.60;;
15096;SDS011;7649;52.084;7.478;2022-09-14T06:41:01;14.83;;;4.87;;
15096;SDS011;7649;52.084;7.478;2022-09-14T06:43:32;13.60;;;4.50;;
15096;SDS011;7649;52.084;7.478;2022-09-14T06:46:01;10.43;;;4.60;;
15096;SDS011;7649;52.084;7.478;2022-09-14T06:48:31;8.40;;;4.60;;
15096;SDS011;7649;52.084;7.478;2022-09-14T06:51:02;12.87;;;4.83;;
15096;SDS011;7649;52.084;7.478;2022-09-14T06:53:37;9.90;;;4.80;;
15096;SDS011;7649;52.084;7.478;2022-09-14T06:56:05;7.67;;;4.37;;
15096;SDS011;7649;52.084;7.478;2022-09-14T06:58:33;10.10;;;4.90;;
15096;SDS011;7649;52.084;7.478;2022-09-14T07:01:02;9.03;;;4.80;;
15096;SDS011;7649;52.084;7.478;2022-09-14T07:03:31;13.97;;;6.77;;
15096;SDS011;7649;52.084;7.478;2022-09-14T07:06:01;14.60;;;5.63;;
15096;SDS011;7649;52.084;7.478;2022-09-14T07:08:31;14.67;;;5.10;;
15096;SDS011;7649;52.084;7.478;2022-09-14T07:11:01;11.03;;;4.90;;
15096;SDS011;7649;52.084;7.478;2022-09-14T07:13:30;10.30;;;5.13;;
15096;SDS011;7649;52.084;7.478;2022-09-14T07:15:58;14.17;;;5.50;;
15096;SDS011;7649;52.084;7.478;2022-09-14T07:18:29;7.97;;;4.57;;
15096;SDS011;7649;52.084;7.478;2022-09-14T07:21:03;8.00;;;4.70;;
15096;SDS011;7649;52.084;7.478;2022-09-14T07:23:32;13.40;;;5.30;;
15096;SDS011;7649;52.084;7.478;2022-09-14T07:26:02;10.73;;;4.70;;
15096;SDS011;7649;52.084;7.478;2022-09-14T07:28:33;9.67;;;4.80;;
15096;SDS011;7649;52.084;7.478;2022-09-14T07:31:02;11.60;;;4.80;;
15096;SDS011;7649;52.084;7.478;2022-09-14T07:33:31;8.67;;;4.87;;
15096;SDS011;7649;52.084;7.478;2022-09-14T07:36:06;11.13;;;5.10;;
15096;SDS011;7649;52.084;7.478;2022-09-14T07:38:35;7.83;;;4.50;;
15096;SDS011;7649;52.084;7.478;2022-09-14T07:41:19;11.33;;;5.17;;
15096;SDS011;7649;52.084;7.478;2022-09-14T07:43:47;9.47;;;4.60;;
15096;SDS011;7649;52.084;7.478;2022-09-14T07:46:16;10.67;;;4.97;;
15096;SDS011;7649;52.084;7.478;2022-09-14T07:48:45;11.40;;;5.53;;
15096;SDS011;7649;52.084;7.478;2022-09-14T07:51:15;6.83;;;4.40;;
15096;SDS011;7649;52.084;7.478;2022-09-14T07:53:44;9.13;;;4.37;;
15096;SDS011;7649;52.084;7.478;2022-09-14T07:56:12;8.57;;;4.33;;
15096;SDS011;7649;52.084;7.478;2022-09-14T07:58:42;12.43;;;4.37;;
15096;SDS011;7649;52.084;7.478;2022-09-14T08:01:11;7.27;;;4.33;;
15096;SDS011;7649;52.084;7.478;2022-09-14T08:03:41;11.33;;;4.97;;
15096;SDS011;7649;52.084;7.478;2022-09-14T08:06:10;6.93;;;4.33;;
15096;SDS011;7649;52.084;7.478;2022-09-14T08:08:41;9.73;;;4.67;;
15096;SDS011;7649;52.084;7.478;2022-09-14T08:11:10;8.30;;;5.07;;
15096;SDS011;7649;52.084;7.478;2022-09-14T08:13:40;9.93;;;5.07;;
15096;SDS011;7649;52.084;7.478;2022-09-14T08:16:08;9.97;;;4.60;;
15096;SDS011;7649;52.084;7.478;2022-09-14T08:18:37;7.07;;;4.50;;
15096;SDS011;7649;52.084;7.478;2022-09-14T08:21:05;7.37;;;4.60;;
15096;SDS011;7649;52.084;7.478;2022-09-14T08:23:34;8.77;;;4.67;;
15096;SDS011;7649;52.084;7.478;2022-09-14T08:26:04;9.07;;;4.40;;
15096;SDS011;7649;52.084;7.478;2022-09-14T08:28:33;6.30;;;3.90;;
15096;SDS011;7649;52.084;7.478;2022-09-14T08:31:03;7.20;;;3.60;;
15096;SDS011;7649;52.084;7.478;2022-09-14T08:33:32;9.50;;;3.83;;
15096;SDS011;7649;52.084;7.478;2022-09-14T08:36:01;8.57;;;4.00;;
15096;SDS011;7649;52.084;7.478;2022-09-14T08:38:29;8.50;;;4.00;;
15096;SDS011;7649;52.084;7.478;2022-09-14T08:40:59;10.73;;;4.17;;
15096;SDS011;7649;52.084;7.478;2022-09-14T08:43:34;6.67;;;3.50;;
15096;SDS011;7649;52.084;7.478;2022-09-14T08:46:06;10.60;;;4.27;;
15096;SDS011;7649;52.084;7.478;2022-09-14T08:48:39;9.40;;;3.90;;
15096;SDS011;7649;52.084;7.478;2022-09-14T08:51:09;10.60;;;3.97;;
15096;SDS011;7649;52.084;7.478;2022-09-14T08:53:37;9.83;;;3.80;;
15096;SDS011;7649;52.084;7.478;2022-09-14T08:56:07;12.53;;;4.60;;
15096;SDS011;7649;52.084;7.478;2022-09-14T08:58:45;6.87;;;3.83;;
15096;SDS011;7649;52.084;7.478;2022-09-14T09:01:16;6.93;;;4.20;;
15096;SDS011;7649;52.084;7.478;2022-09-14T09:04:00;8.60;;;3.83;;
15096;SDS011;7649;52.084;7.478;2022-09-14T09:06:31;8.27;;;4.07;;
15096;SDS011;7649;52.084;7.478;2022-09-14T09:09:03;6.23;;;3.83;;
15096;SDS011;7649;52.084;7.478;2022-09-14T09:11:34;7.53;;;3.90;;
15096;SDS011;7649;52.084;7.478;2022-09-14T09:14:07;9.27;;;4.13;;
15096;SDS011;7649;52.084;7.478;2022-09-14T09:16:44;6.40;;;4.10;;
15096;SDS011;7649;52.084;7.478;2022-09-14T09:19:15;8.40;;;4.30;;
15096;SDS011;7649;52.084;7.478;2022-09-14T09:21:45;9.67;;;4.50;;
15096;SDS011;7649;52.084;7.478;2022-09-14T09:24:16;9.60;;;4.30;;
15096;SDS011;7649;52.084;7.478;2022-09-14T09:26:47;8.87;;;3.80;;
15096;SDS011;7649;52.084;7.478;2022-09-14T09:29:17;12.43;;;4.43;;
15096;SDS011;7649;52.084;7.478;2022-09-14T09:31:47;14.73;;;5.33;;
15096;SDS011;7649;52.084;7.478;2022-09-14T09:34:24;14.00;;;4.17;;
15096;SDS011;7649;52.084;7.478;2022-09-14T09:36:53;6.43;;;4.23;;
15096;SDS011;7649;52.084;7.478;2022-09-14T09:39:22;7.27;;;4.17;;
15096;SDS011;7649;52.084;7.478;2022-09-14T09:41:53;6.77;;;3.87;;
15096;SDS011;7649;52.084;7.478;2022-09-14T09:44:23;16.10;;;4.37;;
15096;SDS011;7649;52.084;7.478;2022-09-14T09:46:52;6.27;;;4.40;;
15096;SDS011;7649;52.084;7.478;2022-09-14T09:49:22;7.50;;;3.67;;
15096;SDS011;7649;52.084;7.478;2022-09-14T09:51:51;5.00;;;3.67;;
15096;SDS011;7649;52.084;7.478;2022-09-14T09:54:24;17.93;;;4.20;;
15096;SDS011;7649;52.084;7.478;2022-09-14T09:56:54;9.27;;;3.60;;
15096;SDS011;7649;52.084;7.478;2022-09-14T09:59:28;12.50;;;4.13;;
15096;SDS011;7649;52.084;7.478;2022-09-14T10:04:54;9.07;;;3.70;;
15096;SDS011;7649;52.084;7.478;2022-09-14T10:07:22;10.70;;;3.70;;
15096;SDS011;7649;52.084;7.478;2022-09-14T10:09:58;5.57;;;3.53;;
15096;SDS011;7649;52.084;7.478;2022-09-14T10:12:27;4.23;;;2.90;;
15096;SDS011;7649;52.084;7.478;2022-09-14T10:15:10;9.53;;;3.30;;
15096;SDS011;7649;52.084;7.478;2022-09-14T10:17:51;6.27;;;3.07;;
15096;SDS011;7649;52.084;7.478;2022-09-14T10:20:20;5.43;;;2.90;;
15096;SDS011;7649;52.084;7.478;2022-09-14T10:22:49;8.70;;;3.07;;
15096;SDS011;7649;52.084;7.478;2022-09-14T10:25:19;3.83;;;2.37;;
15096;SDS011;7649;52.084;7.478;2022-09-14T10:27:54;5.67;;;2.90;;
15096;SDS011;7649;52.084;7.478;2022-09-14T10:30:25;4.20;;;1.80;;
15096;SDS011;7649;52.084;7.478;2022-09-14T10:32:56;16.60;;;3.50;;
15096;SDS011;7649;52.084;7.478;2022-09-14T10:35:33;4.20;;;2.53;;
15096;SDS011;7649;52.084;7.478;2022-09-14T10:38:15;5.60;;;2.93;;
15096;SDS011;7649;52.084;7.478;2022-09-14T10:40:49;5.47;;;2.93;;
15096;SDS011;7649;52.084;7.478;2022-09-14T10:43:21;13.07;;;3.60;;
15096;SDS011;7649;52.084;7.478;2022-09-14T10:45:53;7.17;;;3.00;;
15096;SDS011;7649;52.084;7.478;2022-09-14T10:48:29;6.30;;;2.63;;
15096;SDS011;7649;52.084;7.478;2022-09-14T10:51:01;10.40;;;3.13;;
15096;SDS011;7649;52.084;7.478;2022-09-14T10:53:36;7.07;;;3.30;;
15096;SDS011;7649;52.084;7.478;2022-09-14T10:56:09;8.63;;;2.97;;
15096;SDS011;7649;52.084;7.478;2022-09-14T10:58:47;5.87;;;3.00;;
15096;SDS011;7649;52.084;7.478;2022-09-14T11:01:23;7.43;;;2.60;;
15096;SDS011;7649;52.084;7.478;2022-09-14T11:03:57;3.63;;;2.23;;
15096;SDS011;7649;52.084;7.478;2022-09-14T11:06:31;9.20;;;2.80;;
15096;SDS011;7649;52.084;7.478;2022-09-14T11:09:05;4.73;;;1.83;;
15096;SDS011;7649;52.084;7.478;2022-09-14T11:11:37;4.80;;;2.23;;
15096;SDS011;7649;52.084;7.478;2022-09-14T11:14:11;5.27;;;2.83;;
15096;SDS011;7649;52.084;7.478;2022-09-14T11:16:51;5.13;;;2.67;;
15096;SDS011;7649;52.084;7.478;2022-09-14T11:19:23;7.30;;;2.70;;
15096;SDS011;7649;52.084;7.478;2022-09-14T11:21:56;6.03;;;2.50;;
15096;SDS011;7649;52.084;7.478;2022-09-14T11:24:29;6.03;;;2.50;;
15096;SDS011;7649;52.084;7.478;2022-09-14T11:27:00;7.20;;;3.00;;
15096;SDS011;7649;52.084;7.478;2022-09-14T11:29:30;5.20;;;2.58;;
15096;SDS011;7649;52.084;7.478;2022-09-14T11:32:02;4.77;;;2.43;;
15096;SDS011;7649;52.084;7.478;2022-09-14T11:34:49;9.03;;;3.03;;
15096;SDS011;7649;52.084;7.478;2022-09-14T11:37:21;7.30;;;2.67;;
15096;SDS011;7649;52.084;7.478;2022-09-14T11:39:54;9.00;;;3.83;;
15096;SDS011;7649;52.084;7.478;2022-09-14T11:42:25;3.72;;;2.45;;
15096;SDS011;7649;52.084;7.478;2022-09-14T11:44:57;4.65;;;2.65;;
15096;SDS011;7649;52.084;7.478;2022-09-14T11:47:27;7.43;;;2.73;;
15096;SDS011;7649;52.084;7.478;2022-09-14T11:50:04;5.53;;;2.83;;
15096;SDS011;7649;52.084;7.478;2022-09-14T11:52:36;5.73;;;2.37;;
15096;SDS011;7649;52.084;7.478;2022-09-14T11:55:07;9.20;;;3.00;;
15096;SDS011;7649;52.084;7.478;2022-09-14T11:57:36;5.55;;;2.58;;
15096;SDS011;7649;52.084;7.478;2022-09-14T12:00:06;9.25;;;2.40;;
15096;SDS011;7649;52.084;7.478;2022-09-14T12:05:28;3.58;;;2.10;;
15096;SDS011;7649;52.084;7.478;2022-09-14T12:07:58;10.00;;;2.60;;
15096;SDS011;7649;52.084;7.478;2022-09-14T12:10:26;10.52;;;2.90;;
15096;SDS011;7649;52.084;7.478;2022-09-14T12:12:55;6.53;;;2.57;;
15096;SDS011;7649;52.084;7.478;2022-09-14T12:15:31;8.97;;;2.23;;
15096;SDS011;7649;52.084;7.478;2022-09-14T12:21:03;7.53;;;3.00;;
15096;SDS011;7649;52.084;7.478;2022-09-14T12:23:43;7.45;;;2.08;;
15096;SDS011;7649;52.084;7.478;2022-09-14T12:34:34;5.70;;;2.47;;
15096;SDS011;7649;52.084;7.478;2022-09-14T12:42:43;4.83;;;2.20;;
15096;SDS011;7649;52.084;7.478;2022-09-14T12:47:58;3.67;;;1.80;;
15096;SDS011;7649;52.084;7.478;2022-09-14T12:50:27;3.28;;;1.85;;
15096;SDS011;7649;52.084;7.478;2022-09-14T12:55:52;4.43;;;1.67;;
15096;SDS011;7649;52.084;7.478;2022-09-14T12:58:32;4.15;;;1.70;;
15096;SDS011;7649;52.084;7.478;2022-09-14T13:01:09;5.20;;;2.07;;
15096;SDS011;7649;52.084;7.478;2022-09-14T13:03:45;5.23;;;1.90;;
15096;SDS011;7649;52.084;7.478;2022-09-14T13:06:15;9.00;;;2.07;;
15096;SDS011;7649;52.084;7.478;2022-09-14T13:08:45;9.20;;;2.83;;
15096;SDS011;7649;52.084;7.478;2022-09-14T13:11:18;4.43;;;2.43;;
15096;SDS011;7649;52.084;7.478;2022-09-14T13:13:48;5.82;;;2.20;;
15096;SDS011;7649;52.084;7.478;2022-09-14T13:16:18;6.50;;;2.60;;
15096;SDS011;7649;52.084;7.478;2022-09-14T13:18:48;7.10;;;2.70;;
15096;SDS011;7649;52.084;7.478;2022-09-14T13:21:17;9.88;;;3.20;;
15096;SDS011;7649;52.084;7.478;2022-09-14T13:23:46;6.38;;;2.25;;
15096;SDS011;7649;52.084;7.478;2022-09-14T13:26:15;7.47;;;2.60;;
15096;SDS011;7649;52.084;7.478;2022-09-14T13:28:45;7.55;;;2.28;;
15096;SDS011;7649;52.084;7.478;2022-09-14T13:31:17;6.05;;;1.95;;
15096;SDS011;7649;52.084;7.478;2022-09-14T13:33:47;6.27;;;2.30;;
15096;SDS011;7649;52.084;7.478;2022-09-14T13:36:16;7.75;;;2.80;;
15096;SDS011;7649;52.084;7.478;2022-09-14T13:38:45;5.63;;;2.20;;
15096;SDS011;7649;52.084;7.478;2022-09-14T13:41:14;4.28;;;1.85;;
15096;SDS011;7649;52.084;7.478;2022-09-14T13:43:43;4.93;;;2.13;;
15096;SDS011;7649;52.084;7.478;2022-09-14T13:46:12;3.90;;;2.42;;
15096;SDS011;7649;52.084;7.478;2022-09-14T13:48:47;6.65;;;2.05;;
15096;SDS011;7649;52.084;7.478;2022-09-14T13:51:16;5.28;;;2.10;;
15096;SDS011;7649;52.084;7.478;2022-09-14T13:53:49;9.55;;;2.58;;
15096;SDS011;7649;52.084;7.478;2022-09-14T13:56:22;7.65;;;2.10;;
15096;SDS011;7649;52.084;7.478;2022-09-14T14:01:36;7.15;;;2.33;;
15096;SDS011;7649;52.084;7.478;2022-09-14T14:04:16;5.60;;;2.30;;
15096;SDS011;7649;52.084;7.478;2022-09-14T14:06:56;3.92;;;2.10;;
15096;SDS011;7649;52.084;7.478;2022-09-14T14:09:25;4.75;;;2.05;;
15096;SDS011;7649;52.084;7.478;2022-09-14T14:12:04;8.55;;;2.63;;
15096;SDS011;7649;52.084;7.478;2022-09-14T14:14:33;6.72;;;2.13;;
15096;SDS011;7649;52.084;7.478;2022-09-14T14:19:55;7.55;;;2.40;;
15096;SDS011;7649;52.084;7.478;2022-09-14T14:22:25;10.90;;;2.30;;
15096;SDS011;7649;52.084;7.478;2022-09-14T14:24:53;6.13;;;2.28;;
15096;SDS011;7649;52.084;7.478;2022-09-14T14:27:40;4.75;;;2.20;;
15096;SDS011;7649;52.084;7.478;2022-09-14T14:30:11;6.53;;;2.20;;
15096;SDS011;7649;52.084;7.478;2022-09-14T14:32:40;4.13;;;2.10;;
15096;SDS011;7649;52.084;7.478;2022-09-14T14:35:14;6.97;;;2.60;;
15096;SDS011;7649;52.084;7.478;2022-09-14T14:37:43;6.07;;;2.50;;
15096;SDS011;7649;52.084;7.478;2022-09-14T14:40:12;5.45;;;2.42;;
15096;SDS011;7649;52.084;7.478;2022-09-14T14:42:41;5.00;;;2.58;;
15096;SDS011;7649;52.084;7.478;2022-09-14T14:45:11;5.00;;;2.20;;
15096;SDS011;7649;52.084;7.478;2022-09-14T14:47:40;8.10;;;2.50;;
15096;SDS011;7649;52.084;7.478;2022-09-14T14:50:11;5.90;;;2.75;;
15096;SDS011;7649;52.084;7.478;2022-09-14T14:52:41;6.18;;;2.42;;
15096;SDS011;7649;52.084;7.478;2022-09-14T14:55:09;4.93;;;2.60;;
15096;SDS011;7649;52.084;7.478;2022-09-14T14:57:37;5.82;;;2.22;;
15096;SDS011;7649;52.084;7.478;2022-09-14T15:00:10;7.38;;;2.70;;
15096;SDS011;7649;52.084;7.478;2022-09-14T15:02:39;7.60;;;2.65;;
15096;SDS011;7649;52.084;7.478;2022-09-14T15:05:07;6.85;;;2.80;;
15096;SDS011;7649;52.084;7.478;2022-09-14T15:07:36;7.05;;;2.58;;
15096;SDS011;7649;52.084;7.478;2022-09-14T15:10:06;6.70;;;2.40;;
15096;SDS011;7649;52.084;7.478;2022-09-14T15:12:35;6.13;;;2.22;;
15096;SDS011;7649;52.084;7.478;2022-09-14T15:15:05;8.18;;;2.80;;
15096;SDS011;7649;52.084;7.478;2022-09-14T15:17:33;6.03;;;2.50;;
15096;SDS011;7649;52.084;7.478;2022-09-14T15:20:01;8.68;;;2.85;;
15096;SDS011;7649;52.084;7.478;2022-09-14T15:22:30;5.95;;;2.25;;
15096;SDS011;7649;52.084;7.478;2022-09-14T15:24:58;6.20;;;2.40;;
15096;SDS011;7649;52.084;7.478;2022-09-14T15:27:27;4.53;;;2.00;;
15096;SDS011;7649;52.084;7.478;2022-09-14T15:29:56;5.35;;;2.08;;
15096;SDS011;7649;52.084;7.478;2022-09-14T15:32:24;5.43;;;2.63;;
15096;SDS011;7649;52.084;7.478;2022-09-14T15:34:52;8.07;;;2.67;;
15096;SDS011;7649;52.084;7.478;2022-09-14T15:37:20;4.80;;;2.20;;
15096;SDS011;7649;52.084;7.478;2022-09-14T15:39:48;4.43;;;2.53;;
15096;SDS011;7649;52.084;7.478;2022-09-14T15:42:17;5.95;;;2.38;;
15096;SDS011;7649;52.084;7.478;2022-09-14T15:44:47;4.45;;;2.33;;
15096;SDS011;7649;52.084;7.478;2022-09-14T15:47:15;5.57;;;2.40;;
15096;SDS011;7649;52.084;7.478;2022-09-14T15:49:43;7.50;;;2.67;;
15096;SDS011;7649;52.084;7.478;2022-09-14T15:52:12;5.67;;;2.20;;
15096;SDS011;7649;52.084;7.478;2022-09-14T15:54:40;5.23;;;2.10;;